OAKB/KBL METAR and TAF weather

Enter ICAO airport designator
Station Type Date Time Source
OAKB METAR 2021/06/22 23:50 UTC NOAA

OAKB 222350Z 25004KT CAVOK 19/M03 Q1016 RMK A3001 BLU BLU


Station Type Date Time Source
OAKB Decoded METAR 2021/06/22 23:50 UTC NOAA

Kabul Airport, Afghanistan (OAKB) 34-38N 069-12E
Jun 22, 2021 - 07:50 PM EDT / 2021.06.22 2350 UTC
Wind: from the WSW (250 degrees) at 5 MPH (4 KT):0
Visibility: greater than 7 mile(s):0
Temperature: 66 F (19 C)
Dew Point: 26 F (-3 C)
Relative Humidity: 22%
Pressure (altimeter): 30.00 in. Hg (1016 hPa)
ob: OAKB 222350Z 25004KT CAVOK 19/M03 Q1016 RMK A3001 BLU BLU
cycle: 0

Station Type Date Time Source
OAKB TAF 2021/06/22 18:05 UTC NOAA

TAF OAKB 221705Z 2218/2318 03015G25KT CAVOK
BECMG 2218/2220 01012KT
BECMG 2222/2224 VRB02KT
BECMG 2304/2306 36012KT
BECMG 2310/2312 02015G25KT 9999 FEW100
TEMPO 2312/2316 03020G35KT

Example: see airport list